TimeCST,TemperatureF,Dew PointF,Humidity,Sea Level PressureIn,VisibilityMPH,Wind Direction,Wind SpeedMPH,Gust SpeedMPH,PrecipitationIn,Events,Conditions,WindDirDegrees,DateUTC
12:57 AM,30.0,14.0,51,30.23,10.0,West,8.1,-,N/A,,Clear,270,2014-01-15 06:57:00
1:57 AM,28.9,14.0,54,30.24,10.0,West,8.1,-,N/A,,Clear,280,2014-01-15 07:57:00
2:57 AM,28.9,15.1,56,30.24,10.0,WNW,10.4,-,N/A,,Partly Cloudy,300,2014-01-15 08:57:00
3:57 AM,27.0,14.0,58,30.25,10.0,NW,10.4,-,N/A,,Clear,320,2014-01-15 09:57:00
4:57 AM,25.0,12.9,60,30.25,10.0,NW,4.6,-,N/A,,Clear,310,2014-01-15 10:57:00
5:57 AM,24.1,12.9,62,30.26,10.0,WNW,6.9,-,N/A,,Clear,300,2014-01-15 11:57:00
6:57 AM,24.1,12.0,60,30.27,10.0,NW,9.2,-,N/A,,Clear,310,2014-01-15 12:57:00
7:57 AM,23.0,12.0,63,30.28,10.0,NW,8.1,-,N/A,,Clear,310,2014-01-15 13:57:00
8:57 AM,26.1,12.0,55,30.30,10.0,NNW,9.2,-,N/A,,Clear,330,2014-01-15 14:57:00
9:57 AM,28.0,12.0,51,30.30,10.0,NNW,11.5,-,N/A,,Clear,330,2014-01-15 15:57:00
10:57 AM,30.9,12.9,47,30.30,10.0,WNW,10.4,-,N/A,,Mostly Cloudy,300,2014-01-15 16:57:00
11:57 AM,33.1,12.0,42,30.27,10.0,West,16.1,20.7,N/A,,Clear,280,2014-01-15 17:57:00
12:57 PM,35.1,14.0,42,30.22,10.0,NW,17.3,23.0,N/A,,Scattered Clouds,310,2014-01-15 18:57:00
1:57 PM,36.0,14.0,41,30.19,10.0,West,12.7,-,N/A,,Clear,270,2014-01-15 19:57:00
2:57 PM,37.0,14.0,39,30.19,10.0,WNW,9.2,-,N/A,,Clear,300,2014-01-15 20:57:00
3:57 PM,37.0,17.1,44,30.18,10.0,WNW,9.2,-,N/A,,Clear,300,2014-01-15 21:57:00
4:57 PM,36.0,18.0,48,30.17,10.0,SSW,3.5,-,N/A,,Mostly Cloudy,210,2014-01-15 22:57:00
5:57 PM,34.0,17.1,50,30.14,10.0,SSE,3.5,-,N/A,,Clear,150,2014-01-15 23:57:00
6:57 PM,34.0,18.0,52,30.12,10.0,SE,5.8,-,N/A,,Overcast,140,2014-01-16 00:57:00
7:57 PM,35.1,18.0,50,30.10,10.0,SSE,8.1,-,N/A,,Overcast,160,2014-01-16 01:57:00
8:57 PM,35.1,19.9,54,30.07,10.0,South,9.2,-,N/A,,Overcast,180,2014-01-16 02:57:00
9:57 PM,37.0,19.0,48,30.04,10.0,South,12.7,-,N/A,,Overcast,190,2014-01-16 03:57:00
10:57 PM,37.9,19.0,47,29.99,10.0,South,15.0,-,N/A,,Overcast,190,2014-01-16 04:57:00
11:57 PM,39.0,19.9,46,29.98,10.0,SSW,15.0,-,N/A,,Overcast,200,2014-01-16 05:57:00